createdAt,value
2018-12-18T00:00:50.865Z,4.01
2018-12-18T00:01:54.338Z,4.02
2018-12-18T00:02:57.108Z,3.97
2018-12-18T00:04:00.079Z,3.95
2018-12-18T00:05:06.878Z,3.99
2018-12-18T00:06:09.675Z,3.96
2018-12-18T00:07:12.504Z,3.92
2018-12-18T00:08:15.307Z,3.88
2018-12-18T00:09:18.092Z,3.86
2018-12-18T00:10:20.871Z,3.84
2018-12-18T00:11:23.943Z,3.86
2018-12-18T00:12:27.206Z,3.84
2018-12-18T00:13:30.046Z,3.83
2018-12-18T00:14:33.529Z,3.79
2018-12-18T00:15:36.348Z,3.82
2018-12-18T00:16:39.237Z,3.79
2018-12-18T00:17:42.194Z,3.79
2018-12-18T00:18:45.425Z,3.80
2018-12-18T00:19:48.327Z,3.77
2018-12-18T00:20:51.145Z,3.76
2018-12-18T00:21:54.355Z,3.74
2018-12-18T00:22:57.170Z,3.73
2018-12-18T00:24:00.056Z,3.72
2018-12-18T00:25:03.402Z,3.69
2018-12-18T00:26:06.188Z,3.69
2018-12-18T00:27:09.402Z,3.71
2018-12-18T00:28:12.453Z,3.71
2018-12-18T00:29:15.395Z,3.74
2018-12-18T00:30:18.599Z,3.73
2018-12-18T00:31:22.264Z,3.72
2018-12-18T00:32:25.234Z,3.71
2018-12-18T00:33:28.284Z,3.72
2018-12-18T00:34:31.215Z,3.73
2018-12-18T00:35:34.245Z,3.77
2018-12-18T00:36:37.138Z,3.77
2018-12-18T00:37:40.807Z,3.74
2018-12-18T00:38:43.802Z,3.72
2018-12-18T00:39:46.817Z,3.66
2018-12-18T00:40:50.044Z,3.69
2018-12-18T00:41:56.868Z,3.69
2018-12-18T00:42:59.730Z,3.70
2018-12-18T00:44:02.876Z,3.67
2018-12-18T00:45:05.922Z,3.66
2018-12-18T00:46:08.957Z,3.63
2018-12-18T00:47:11.789Z,3.64
2018-12-18T00:48:15.558Z,3.63
2018-12-18T00:49:18.573Z,3.56
2018-12-18T00:50:21.819Z,3.57
2018-12-18T00:51:25.130Z,3.58
2018-12-18T00:52:28.032Z,3.59
2018-12-18T00:53:31.004Z,3.66
2018-12-18T00:54:34.037Z,3.69
2018-12-18T00:55:37.993Z,3.75
2018-12-18T00:56:41.211Z,3.78
2018-12-18T00:57:44.041Z,3.76
2018-12-18T00:58:46.838Z,3.74
2018-12-18T00:59:49.691Z,3.68
2018-12-18T01:00:52.490Z,3.71
2018-12-18T01:02:01.945Z,3.74
2018-12-18T01:03:04.741Z,3.75
2018-12-18T01:04:07.524Z,3.73
2018-12-18T01:05:10.317Z,3.67
2018-12-18T01:06:13.102Z,3.64
2018-12-18T01:07:16.074Z,3.65
2018-12-18T01:08:19.326Z,3.65
2018-12-18T01:09:22.082Z,3.68
2018-12-18T01:10:24.826Z,3.65
2018-12-18T01:11:27.608Z,3.65
2018-12-18T01:12:30.424Z,3.60
2018-12-18T01:13:33.175Z,3.59
2018-12-18T01:14:36.363Z,3.61
2018-12-18T01:15:39.186Z,3.56
2018-12-18T01:16:42.027Z,3.62
2018-12-18T01:17:44.835Z,3.72
2018-12-18T01:18:47.601Z,3.68
2018-12-18T01:19:50.381Z,3.61
2018-12-18T01:20:53.604Z,3.60
2018-12-18T01:21:56.783Z,3.54
2018-12-18T01:22:59.711Z,3.57
2018-12-18T01:24:02.536Z,3.57
2018-12-18T01:25:05.326Z,3.61
2018-12-18T01:26:08.141Z,3.63
2018-12-18T01:27:11.291Z,3.61
2018-12-18T01:28:14.078Z,3.56
2018-12-18T01:29:16.851Z,3.53
2018-12-18T01:30:19.626Z,3.52
2018-12-18T01:31:22.372Z,3.59
2018-12-18T01:32:25.159Z,3.61
2018-12-18T01:33:28.314Z,3.61
2018-12-18T01:34:31.136Z,3.63
2018-12-18T01:35:33.897Z,3.60
2018-12-18T01:36:36.735Z,3.56
2018-12-18T01:37:39.535Z,3.52
2018-12-18T01:38:42.483Z,3.50
2018-12-18T01:39:45.866Z,3.47
2018-12-18T01:40:48.788Z,3.51
2018-12-18T01:41:51.577Z,3.52
2018-12-18T01:42:54.367Z,3.50
2018-12-18T01:43:57.158Z,3.49
2018-12-18T01:44:59.936Z,3.52
2018-12-18T01:46:03.160Z,3.52
2018-12-18T01:47:05.971Z,3.54
2018-12-18T01:48:08.775Z,3.53
2018-12-18T01:49:11.605Z,3.51
2018-12-18T01:50:14.399Z,3.49
2018-12-18T01:51:17.169Z,3.45
2018-12-18T01:52:20.473Z,3.45
2018-12-18T01:53:24.232Z,3.40
2018-12-18T01:54:26.988Z,3.35
2018-12-18T01:55:29.814Z,3.32
2018-12-18T01:56:32.607Z,3.30
2018-12-18T01:57:35.437Z,3.28
2018-12-18T01:58:38.718Z,3.20
2018-12-18T01:59:41.752Z,3.15
2018-12-18T02:00:44.551Z,3.18
2018-12-18T02:01:47.325Z,3.22
2018-12-18T02:02:50.145Z,3.25
2018-12-18T02:03:52.950Z,3.24
2018-12-18T02:04:56.111Z,3.26
2018-12-18T02:05:59.047Z,3.29
2018-12-18T02:07:01.855Z,3.35
2018-12-18T02:08:04.646Z,3.38
2018-12-18T02:09:07.409Z,3.38
2018-12-18T02:10:10.189Z,3.37
2018-12-18T02:11:13.998Z,3.33
2018-12-18T02:12:16.784Z,3.32
2018-12-18T02:13:19.543Z,3.32
2018-12-18T02:14:22.334Z,3.38
2018-12-18T02:15:25.099Z,3.41
2018-12-18T02:16:27.900Z,3.41
2018-12-18T02:17:31.024Z,3.39
2018-12-18T02:18:33.827Z,3.38
2018-12-18T02:19:36.625Z,3.36
2018-12-18T02:20:39.403Z,3.34
2018-12-18T02:21:42.420Z,3.39
2018-12-18T02:22:45.280Z,3.45
2018-12-18T02:23:48.424Z,3.46
2018-12-18T02:24:51.237Z,3.51
2018-12-18T02:25:54.038Z,3.51
2018-12-18T02:26:56.806Z,3.50
2018-12-18T02:27:59.590Z,3.50
2018-12-18T02:29:02.350Z,3.50
2018-12-18T02:30:05.506Z,3.52
2018-12-18T02:31:08.283Z,3.54
2018-12-18T02:32:11.082Z,3.50
2018-12-18T02:33:13.879Z,3.47
2018-12-18T02:34:16.671Z,3.44
2018-12-18T02:35:19.458Z,3.39
2018-12-18T02:36:22.732Z,3.40
2018-12-18T02:37:25.530Z,3.42
2018-12-18T02:38:28.287Z,3.48
2018-12-18T02:39:31.056Z,3.51
2018-12-18T02:40:34.135Z,3.56
2018-12-18T02:41:36.867Z,3.56
2018-12-18T02:42:43.755Z,3.58
2018-12-18T02:43:46.623Z,3.59
2018-12-18T02:44:49.799Z,3.61
2018-12-18T02:45:53.341Z,3.61
2018-12-18T02:46:56.692Z,3.63
2018-12-18T02:47:59.833Z,3.64
2018-12-18T02:49:03.237Z,3.63
2018-12-18T02:50:07.118Z,3.67
2018-12-18T02:51:11.036Z,3.68
2018-12-18T02:52:19.493Z,3.69
2018-12-18T02:53:22.789Z,3.68
2018-12-18T02:54:26.580Z,3.67
2018-12-18T02:55:30.170Z,3.64
2018-12-18T02:56:32.937Z,3.63
2018-12-18T02:57:36.419Z,3.61
2018-12-18T02:58:40.164Z,3.64
2018-12-18T02:59:42.993Z,3.66
2018-12-18T03:00:46.060Z,3.64
2018-12-18T03:01:49.285Z,3.67
2018-12-18T03:02:52.324Z,3.67
2018-12-18T03:03:55.810Z,3.66
2018-12-18T03:04:59.105Z,3.68
2018-12-18T03:06:02.560Z,3.71
2018-12-18T03:07:05.533Z,3.73
2018-12-18T03:08:09.427Z,3.74
2018-12-18T03:09:13.380Z,3.71
2018-12-18T03:10:16.431Z,3.75
2018-12-18T03:11:21.465Z,3.80
2018-12-18T03:12:24.750Z,3.78
2018-12-18T03:13:27.772Z,3.78
2018-12-18T03:14:30.981Z,3.75
2018-12-18T03:15:33.816Z,3.70
2018-12-18T03:16:36.583Z,3.70
2018-12-18T03:17:39.385Z,3.69
2018-12-18T03:18:42.152Z,3.65
2018-12-18T03:19:45.017Z,3.60
2018-12-18T03:20:48.435Z,3.65
2018-12-18T03:21:51.221Z,3.66
2018-12-18T03:22:53.980Z,3.65
2018-12-18T03:23:56.753Z,3.68
2018-12-18T03:24:59.723Z,3.71
2018-12-18T03:26:02.810Z,3.74
2018-12-18T03:27:06.384Z,3.76
2018-12-18T03:28:09.262Z,3.77
2018-12-18T03:29:12.200Z,3.78
2018-12-18T03:30:15.571Z,3.78
2018-12-18T03:31:18.470Z,3.80
2018-12-18T03:32:25.598Z,3.83
2018-12-18T03:33:28.855Z,3.83
2018-12-18T03:34:32.434Z,3.85
2018-12-18T03:35:35.412Z,3.82
2018-12-18T03:36:38.352Z,3.81
2018-12-18T03:37:41.906Z,3.82
2018-12-18T03:38:44.674Z,3.83
2018-12-18T03:39:47.794Z,3.85
2018-12-18T03:40:52.146Z,3.84
2018-12-18T03:41:55.222Z,3.84
2018-12-18T03:42:58.084Z,3.81
2018-12-18T03:44:00.894Z,3.84
2018-12-18T03:45:04.015Z,3.87
2018-12-18T03:46:06.783Z,3.89
2018-12-18T03:47:09.673Z,3.89
2018-12-18T03:48:12.722Z,3.91
2018-12-18T03:49:15.819Z,3.93
2018-12-18T03:50:20.282Z,3.90
2018-12-18T03:51:23.444Z,3.92
2018-12-18T03:52:27.712Z,3.91
2018-12-18T03:53:33.484Z,3.89
2018-12-18T03:54:36.323Z,3.87
2018-12-18T03:55:40.178Z,3.84
2018-12-18T03:56:44.270Z,3.83
2018-12-18T03:57:47.929Z,3.82
2018-12-18T03:58:50.719Z,3.82
2018-12-18T03:59:53.474Z,3.81
2018-12-18T04:00:56.239Z,3.86
2018-12-18T04:01:59.026Z,3.86
2018-12-18T04:03:01.785Z,3.85
2018-12-18T04:04:05.472Z,3.86
2018-12-18T04:05:08.353Z,3.86
2018-12-18T04:06:11.160Z,3.89
2018-12-18T04:07:13.987Z,3.91
2018-12-18T04:08:16.718Z,3.90
2018-12-18T04:09:19.537Z,3.91
2018-12-18T04:10:22.684Z,3.91
2018-12-18T04:11:25.489Z,3.90
2018-12-18T04:12:28.254Z,3.91
2018-12-18T04:13:31.050Z,3.93
2018-12-18T04:14:33.841Z,3.93
2018-12-18T04:15:36.607Z,3.91
2018-12-18T04:16:39.711Z,3.92
2018-12-18T04:17:42.491Z,3.95
2018-12-18T04:18:45.195Z,3.99
2018-12-18T04:19:47.928Z,3.99
2018-12-18T04:20:50.670Z,3.95
2018-12-18T04:21:53.429Z,3.94
2018-12-18T04:22:56.552Z,3.92
2018-12-18T04:23:59.299Z,3.92
2018-12-18T04:25:03.471Z,3.95
2018-12-18T04:26:07.013Z,3.95
2018-12-18T04:27:09.872Z,3.94
2018-12-18T04:28:12.993Z,3.93
2018-12-18T04:29:15.701Z,3.92
2018-12-18T04:30:18.511Z,3.92
2018-12-18T04:31:21.258Z,3.92
2018-12-18T04:32:24.259Z,3.93
2018-12-18T04:33:27.049Z,3.94
2018-12-18T04:34:30.198Z,3.94
2018-12-18T04:35:32.968Z,3.96
2018-12-18T04:36:35.830Z,3.97
2018-12-18T04:37:38.579Z,3.96
2018-12-18T04:38:41.338Z,4.01
2018-12-18T04:39:44.169Z,4.03
2018-12-18T04:40:46.958Z,4.01
2018-12-18T04:41:49.726Z,3.99
2018-12-18T04:42:52.457Z,4.01
2018-12-18T04:43:55.343Z,4.00
2018-12-18T04:44:58.156Z,4.00
2018-12-18T04:46:00.956Z,4.02
2018-12-18T04:47:03.744Z,4.02
2018-12-18T04:48:06.522Z,4.02
2018-12-18T04:49:09.289Z,4.02
2018-12-18T04:50:12.077Z,4.04
2018-12-18T04:51:14.856Z,4.04
2018-12-18T04:52:18.041Z,4.05
2018-12-18T04:53:20.813Z,4.04
2018-12-18T04:54:23.593Z,4.05
2018-12-18T04:55:26.363Z,4.03
2018-12-18T04:56:29.136Z,4.03
2018-12-18T04:57:31.898Z,4.03
2018-12-18T04:58:35.081Z,4.03
2018-12-18T04:59:37.862Z,4.07
2018-12-18T05:00:40.619Z,4.09
2018-12-18T05:01:43.371Z,4.08
2018-12-18T05:02:46.152Z,4.07
2018-12-18T05:03:48.959Z,4.07
2018-12-18T05:04:52.070Z,4.07
2018-12-18T05:05:54.839Z,4.08
2018-12-18T05:06:58.140Z,4.11
2018-12-18T05:08:00.949Z,4.12
2018-12-18T05:09:03.724Z,4.15
2018-12-18T05:10:06.860Z,4.12
2018-12-18T05:11:10.762Z,4.12
2018-12-18T05:12:13.537Z,4.11
2018-12-18T05:13:16.347Z,4.08
2018-12-18T05:14:19.140Z,4.06
2018-12-18T05:15:22.425Z,4.04
2018-12-18T05:16:25.210Z,4.04
2018-12-18T05:17:28.389Z,4.08
2018-12-18T05:18:31.159Z,4.07
2018-12-18T05:19:33.910Z,4.08
2018-12-18T05:20:36.640Z,4.08
2018-12-18T05:21:39.434Z,4.11
2018-12-18T05:22:42.193Z,4.13
2018-12-18T05:23:45.449Z,4.12
2018-12-18T05:24:49.455Z,4.09
2018-12-18T05:25:52.230Z,4.11
2018-12-18T05:26:54.980Z,4.10
2018-12-18T05:27:57.709Z,4.08
2018-12-18T05:29:00.485Z,4.10
2018-12-18T05:30:03.741Z,4.10
2018-12-18T05:31:06.469Z,4.11
2018-12-18T05:32:09.259Z,4.12
2018-12-18T05:33:13.220Z,4.13
2018-12-18T05:34:15.995Z,4.12
2018-12-18T05:35:18.739Z,4.11
2018-12-18T05:36:21.946Z,4.11
2018-12-18T05:37:24.658Z,4.10
2018-12-18T05:38:27.413Z,4.11
2018-12-18T05:39:30.174Z,4.11
2018-12-18T05:40:33.253Z,4.12
2018-12-18T05:41:36.054Z,4.11
2018-12-18T05:42:39.192Z,4.11
2018-12-18T05:43:41.952Z,4.13
2018-12-18T05:44:44.712Z,4.14
2018-12-18T05:45:47.492Z,4.12
2018-12-18T05:46:50.254Z,4.13
2018-12-18T05:47:53.037Z,4.14
2018-12-18T05:48:56.252Z,4.12
2018-12-18T05:49:59.147Z,4.12
2018-12-18T05:51:02.423Z,4.12
2018-12-18T05:52:07.256Z,4.12
2018-12-18T05:53:10.035Z,4.12
2018-12-18T05:54:12.785Z,4.14
2018-12-18T05:55:15.928Z,4.14
2018-12-18T05:56:18.713Z,4.11
2018-12-18T05:57:21.465Z,4.11
2018-12-18T05:58:24.344Z,4.14
2018-12-18T05:59:27.145Z,4.15
2018-12-18T06:00:29.964Z,4.16
2018-12-18T06:01:33.245Z,4.14
2018-12-18T06:02:36.182Z,4.15
2018-12-18T06:03:39.006Z,4.17
2018-12-18T06:04:41.900Z,4.17
2018-12-18T06:05:44.693Z,4.17
2018-12-18T06:06:47.494Z,4.19
2018-12-18T06:07:50.602Z,4.19
2018-12-18T06:08:53.374Z,4.19
2018-12-18T06:09:56.947Z,4.20
2018-12-18T06:10:59.699Z,4.18
2018-12-18T06:12:04.046Z,4.17
2018-12-18T06:13:06.719Z,4.14
2018-12-18T06:14:09.972Z,4.14
2018-12-18T06:15:12.736Z,4.16
2018-12-18T06:16:15.475Z,4.15
2018-12-18T06:17:18.273Z,4.17
2018-12-18T06:18:21.715Z,4.18
2018-12-18T06:19:24.529Z,4.19
2018-12-18T06:20:27.757Z,4.19
2018-12-18T06:21:30.515Z,4.18
2018-12-18T06:22:33.588Z,4.16
2018-12-18T06:23:37.543Z,4.17
2018-12-18T06:24:40.654Z,4.19
2018-12-18T06:25:43.486Z,4.20
2018-12-18T06:26:46.641Z,4.19
2018-12-18T06:27:49.408Z,4.17
2018-12-18T06:28:52.214Z,4.13
2018-12-18T06:29:55.000Z,4.13
2018-12-18T06:43:40.228Z,3.99
2018-12-18T06:45:54.333Z,3.96
2018-12-18T06:46:57.319Z,3.98
2018-12-18T06:48:00.869Z,3.95
2018-12-18T06:49:04.091Z,3.93
2018-12-18T06:50:06.921Z,3.93
2018-12-18T06:51:09.725Z,3.98
2018-12-18T06:52:12.515Z,3.95
2018-12-18T06:53:15.271Z,3.93
2018-12-18T06:54:18.137Z,3.93
2018-12-18T06:55:21.298Z,3.92
2018-12-18T06:56:24.035Z,3.94
2018-12-18T06:57:26.773Z,3.94
2018-12-18T06:58:30.053Z,3.90
2018-12-18T06:59:32.869Z,3.87
2018-12-18T07:00:35.688Z,3.88
2018-12-18T07:01:38.890Z,3.90
2018-12-18T07:02:41.710Z,3.88
2018-12-18T07:03:44.518Z,3.89
2018-12-18T07:04:47.672Z,3.90
2018-12-18T07:07:18.294Z,3.95
2018-12-18T07:08:23.048Z,3.96
2018-12-18T07:09:25.850Z,3.98
2018-12-18T07:10:28.744Z,3.98
2018-12-18T07:11:31.499Z,3.96
2018-12-18T07:12:35.400Z,3.95
2018-12-18T07:13:38.901Z,3.98
2018-12-18T07:14:41.766Z,3.95
2018-12-18T07:15:44.658Z,3.94
2018-12-18T07:16:47.714Z,3.92
2018-12-18T07:17:50.739Z,3.91
2018-12-18T07:18:53.603Z,3.91
2018-12-18T07:19:56.874Z,3.90
2018-12-18T07:20:59.649Z,3.91
2018-12-18T07:22:02.417Z,3.89
2018-12-18T07:23:05.313Z,3.87
2018-12-18T07:24:14.031Z,3.88
2018-12-18T07:25:14.527Z,3.88
2018-12-18T07:26:17.923Z,3.86
2018-12-18T07:27:20.690Z,3.82
2018-12-18T07:28:23.489Z,3.82
2018-12-18T07:29:26.316Z,3.81
2018-12-18T07:30:29.144Z,3.83
2018-12-18T07:31:32.070Z,3.81
2018-12-18T07:32:34.873Z,3.83
2018-12-18T07:33:38.295Z,3.82
2018-12-18T07:34:42.576Z,3.83
2018-12-18T07:35:45.930Z,3.85
2018-12-18T07:36:48.705Z,3.86
2018-12-18T07:37:51.488Z,3.87
2018-12-18T07:38:54.765Z,3.91
2018-12-18T07:39:59.014Z,3.90
2018-12-18T07:41:01.769Z,3.87
2018-12-18T07:42:04.528Z,3.87
2018-12-18T07:43:07.347Z,3.87
2018-12-18T07:44:10.148Z,3.88
2018-12-18T07:45:14.338Z,3.92
2018-12-18T07:46:17.191Z,3.99
2018-12-18T07:47:19.990Z,3.98
2018-12-18T07:48:22.838Z,3.90
2018-12-18T07:49:25.622Z,3.88
2018-12-18T07:50:28.409Z,3.89
2018-12-18T07:51:31.628Z,3.92
2018-12-18T07:52:34.464Z,3.89
2018-12-18T07:53:37.248Z,3.88
2018-12-18T07:54:40.240Z,3.91
2018-12-18T07:55:44.621Z,3.95
2018-12-18T07:56:47.427Z,3.99
2018-12-18T07:57:50.624Z,4.04
2018-12-18T07:58:53.442Z,4.03
2018-12-18T07:59:56.667Z,4.05
2018-12-18T08:00:59.952Z,4.08
2018-12-18T08:02:02.801Z,4.15
2018-12-18T08:03:06.144Z,4.21
2018-12-18T08:04:09.435Z,4.28
2018-12-18T08:05:12.520Z,4.31
2018-12-18T08:06:16.586Z,4.31
2018-12-18T08:07:21.146Z,4.32
2018-12-18T08:08:24.101Z,4.35
2018-12-18T08:09:29.042Z,4.44
2018-12-18T08:10:32.716Z,4.44
2018-12-18T08:11:37.762Z,4.52
2018-12-18T08:12:40.839Z,4.51
2018-12-18T08:13:44.626Z,4.57
2018-12-18T08:14:47.618Z,4.62
2018-12-18T08:17:05.386Z,4.98
2018-12-18T08:18:08.200Z,5.26
2018-12-18T08:19:12.153Z,5.15
2018-12-18T08:20:15.086Z,5.12
2018-12-18T08:21:18.338Z,5.23
2018-12-18T08:22:21.493Z,5.10
2018-12-18T08:23:24.296Z,5.05
2018-12-18T08:24:27.046Z,4.98
2018-12-18T08:25:29.798Z,4.75
2018-12-18T08:26:32.832Z,4.89
2018-12-18T08:27:36.438Z,5.14
2018-12-18T08:28:39.746Z,5.20
2018-12-18T08:29:42.534Z,5.45
2018-12-18T08:30:45.360Z,5.45
2018-12-18T08:31:48.212Z,5.45
2018-12-18T08:32:51.049Z,5.52
2018-12-18T08:33:53.878Z,5.68
2018-12-18T08:35:02.364Z,5.79
2018-12-18T08:36:05.226Z,5.73
2018-12-18T08:37:08.212Z,5.88
2018-12-18T08:38:11.038Z,6.03
2018-12-18T08:39:14.377Z,5.97
2018-12-18T08:40:18.473Z,5.93
2018-12-18T08:41:21.265Z,6.09
2018-12-18T08:42:25.283Z,6.14
2018-12-18T08:43:28.366Z,6.29
2018-12-18T08:44:31.393Z,6.36
2018-12-18T08:45:34.469Z,6.54
2018-12-18T08:46:37.476Z,6.83
2018-12-18T08:47:40.447Z,6.78
2018-12-18T08:48:44.516Z,6.82
2018-12-18T08:49:47.261Z,6.89
2018-12-18T08:50:52.694Z,6.64
2018-12-18T08:51:55.855Z,6.32
2018-12-18T08:53:00.541Z,6.06
2018-12-18T08:54:03.498Z,6.08
2018-12-18T08:55:06.326Z,6.05
2018-12-18T08:56:09.796Z,6.15
2018-12-18T08:57:12.644Z,6.21
2018-12-18T08:58:15.976Z,6.23
2018-12-18T08:59:19.527Z,6.38
2018-12-18T09:00:25.591Z,6.33
2018-12-18T09:01:29.534Z,6.17
2018-12-18T09:02:34.080Z,6.42
2018-12-18T09:03:37.415Z,6.09
2018-12-18T09:04:41.451Z,6.13
2018-12-18T09:05:44.295Z,6.33
2018-12-18T09:06:48.689Z,6.21
2018-12-18T09:07:51.527Z,6.13
2018-12-18T09:08:54.331Z,6.12
2018-12-18T09:09:58.231Z,5.82
2018-12-18T09:11:01.058Z,5.82
2018-12-18T09:12:03.968Z,5.82
2018-12-18T09:13:06.855Z,5.77
2018-12-18T09:14:09.639Z,5.63
2018-12-18T09:15:17.359Z,5.83
2018-12-18T09:16:25.617Z,5.87
2018-12-18T09:17:33.335Z,6.01
2018-12-18T09:18:36.132Z,6.19
2018-12-18T09:19:39.198Z,6.16
2018-12-18T09:20:41.990Z,6.66
2018-12-18T09:21:44.772Z,6.71
2018-12-18T09:22:47.853Z,6.39
2018-12-18T09:23:50.622Z,6.49
2018-12-18T09:24:53.396Z,6.57
2018-12-18T09:25:56.178Z,6.66
2018-12-18T09:26:59.007Z,7.11
2018-12-18T09:28:02.536Z,6.78
2018-12-18T09:29:05.717Z,6.41
2018-12-18T09:30:08.629Z,6.37
2018-12-18T09:31:11.674Z,6.44
2018-12-18T09:32:14.477Z,6.39
2018-12-18T09:33:18.168Z,6.57
2018-12-18T09:34:21.264Z,6.37
2018-12-18T09:35:24.690Z,6.51
2018-12-18T09:36:27.700Z,6.55
2018-12-18T09:37:34.903Z,6.73
2018-12-18T09:38:43.521Z,6.80
2018-12-18T09:39:48.572Z,6.66
2018-12-18T09:40:56.551Z,6.61
2018-12-18T09:42:04.387Z,6.62
2018-12-18T09:43:12.064Z,6.82
2018-12-18T09:44:17.094Z,6.90
2018-12-18T09:45:19.918Z,6.77
2018-12-18T09:46:22.769Z,7.08
2018-12-18T09:47:25.921Z,6.93
2018-12-18T09:48:28.671Z,6.84
2018-12-18T09:49:31.796Z,6.58
2018-12-18T09:50:35.893Z,6.39
2018-12-18T09:51:38.774Z,6.38
2018-12-18T09:52:44.228Z,6.38
2018-12-18T09:53:47.612Z,6.45
2018-12-18T09:54:50.416Z,6.57
2018-12-18T09:55:53.177Z,6.47
2018-12-18T09:56:58.079Z,6.63
2018-12-18T09:58:00.921Z,6.85
2018-12-18T09:59:04.087Z,7.15
2018-12-18T10:00:08.139Z,7.22
2018-12-18T10:01:12.653Z,6.94
2018-12-18T10:02:15.642Z,7.22
2018-12-18T10:03:18.667Z,7.12
2018-12-18T10:04:23.242Z,7.07
2018-12-18T10:05:27.315Z,6.84
2018-12-18T10:06:30.277Z,6.77
2018-12-18T10:07:33.485Z,7.06
2018-12-18T10:08:36.690Z,6.96
2018-12-18T10:09:40.752Z,7.10
2018-12-18T10:10:44.648Z,6.83
2018-12-18T10:11:48.142Z,7.14
2018-12-18T10:12:56.657Z,6.91
2018-12-18T10:13:59.453Z,6.92
2018-12-18T10:15:02.221Z,7.01
2018-12-18T10:16:04.983Z,7.16
2018-12-18T10:17:08.236Z,6.95
2018-12-18T10:18:11.035Z,7.02
2018-12-18T10:19:13.807Z,6.86
2018-12-18T10:20:16.944Z,6.66
2018-12-18T10:21:20.303Z,6.33
2018-12-18T10:22:23.046Z,6.29
2018-12-18T10:23:26.269Z,6.31
2018-12-18T10:24:29.111Z,6.68
2018-12-18T10:25:31.935Z,6.81
2018-12-18T10:26:35.024Z,6.95
2018-12-18T10:27:37.858Z,6.89
2018-12-18T10:28:40.702Z,6.55
2018-12-18T10:29:44.810Z,6.85
2018-12-18T10:30:47.752Z,6.93
2018-12-18T10:31:50.576Z,7.05
2018-12-18T10:32:55.381Z,7.01
2018-12-18T10:33:58.424Z,6.64
2018-12-18T10:35:03.810Z,6.78
2018-12-18T10:36:07.731Z,6.94
2018-12-18T10:37:11.397Z,7.39
2018-12-18T10:38:14.204Z,7.75
2018-12-18T10:39:17.041Z,7.38
2018-12-18T10:40:20.421Z,7.52
2018-12-18T10:41:23.249Z,7.76
2018-12-18T10:42:27.964Z,7.93
2018-12-18T10:43:31.625Z,7.99
2018-12-18T10:44:34.444Z,7.89
2018-12-18T10:45:37.951Z,7.75
2018-12-18T10:46:40.731Z,7.41
2018-12-18T10:47:43.601Z,7.67
2018-12-18T10:48:47.065Z,8.04
2018-12-18T10:49:49.866Z,7.88
2018-12-18T10:50:52.768Z,7.94
2018-12-18T10:51:57.274Z,7.76
2018-12-18T10:53:00.091Z,7.05
2018-12-18T10:54:03.054Z,7.09
2018-12-18T10:55:06.331Z,7.47
2018-12-18T10:56:09.060Z,7.02
2018-12-18T10:57:11.873Z,6.94
2018-12-18T10:58:15.678Z,6.56
2018-12-18T10:59:19.303Z,6.33
2018-12-18T11:00:26.976Z,6.57
2018-12-18T11:01:35.164Z,6.59
2018-12-18T11:02:40.193Z,6.53
2018-12-18T11:03:42.998Z,6.26
2018-12-18T11:04:45.805Z,6.19
2018-12-18T11:05:48.957Z,6.08
2018-12-18T11:06:51.705Z,5.99
2018-12-18T11:07:54.945Z,5.92
2018-12-18T11:08:58.379Z,5.92
2018-12-18T11:10:01.337Z,6.39
2018-12-18T11:11:04.459Z,7.20
2018-12-18T11:12:07.203Z,7.43
2018-12-18T11:13:14.946Z,7.36
2018-12-18T11:14:18.025Z,6.61
2018-12-18T11:15:22.586Z,6.64
2018-12-18T11:16:25.325Z,6.38
2018-12-18T11:17:29.184Z,6.21
2018-12-18T11:18:32.750Z,5.99
2018-12-18T11:19:35.617Z,6.11
2018-12-18T11:20:38.750Z,5.99
2018-12-18T11:21:41.637Z,5.92
2018-12-18T11:22:49.342Z,5.71
2018-12-18T11:23:52.127Z,5.53
2018-12-18T11:24:55.765Z,5.60
2018-12-18T11:25:59.445Z,5.51
2018-12-18T11:27:02.589Z,5.63
2018-12-18T11:28:05.382Z,5.64
2018-12-18T11:29:08.177Z,5.78
2018-12-18T11:42:42.654Z,6.52
2018-12-18T11:44:56.383Z,6.30
2018-12-18T11:45:59.151Z,6.26
2018-12-18T11:47:02.133Z,6.15
2018-12-18T11:48:07.009Z,5.98
2018-12-18T11:49:09.871Z,5.69
2018-12-18T11:50:13.726Z,5.82
2018-12-18T11:51:16.545Z,5.91
2018-12-18T11:52:20.719Z,5.90
2018-12-18T11:53:23.597Z,5.79
2018-12-18T11:54:30.668Z,5.86
2018-12-18T11:55:34.025Z,5.87
2018-12-18T11:56:44.790Z,5.87
2018-12-18T11:57:49.532Z,5.95
2018-12-18T11:58:53.315Z,5.64
2018-12-18T12:00:00.495Z,5.82
2018-12-18T12:01:03.987Z,5.96
2018-12-18T12:02:06.777Z,5.93
2018-12-18T12:03:10.107Z,5.91
2018-12-18T12:04:17.136Z,5.91
2018-12-18T12:05:21.435Z,5.70
2018-12-18T12:06:24.219Z,5.60
2018-12-18T12:07:27.788Z,5.37
2018-12-18T12:08:30.565Z,5.45
2018-12-18T12:09:33.933Z,5.37
2018-12-18T12:10:37.307Z,5.29
2018-12-18T12:11:40.466Z,5.43
2018-12-18T12:12:45.593Z,5.47
2018-12-18T12:13:49.562Z,5.48
2018-12-18T12:14:52.594Z,5.43
2018-12-18T12:15:55.854Z,5.45
2018-12-18T12:16:58.622Z,5.30
2018-12-18T12:18:01.507Z,5.23
2018-12-18T12:19:04.824Z,5.38
2018-12-18T12:20:07.901Z,5.39
2018-12-18T12:21:10.711Z,5.29
2018-12-18T12:22:13.537Z,5.35
2018-12-18T12:23:16.902Z,5.33
2018-12-18T12:24:20.407Z,5.20
2018-12-18T12:25:26.492Z,5.23
2018-12-18T12:26:36.566Z,5.33
2018-12-18T12:27:44.159Z,5.22
2018-12-18T12:29:55.969Z,5.23
2018-12-18T12:31:00.323Z,5.13
2018-12-18T12:32:05.531Z,5.22
2018-12-18T12:33:08.843Z,5.21
2018-12-18T12:34:12.328Z,5.27
2018-12-18T12:35:15.754Z,5.24
2018-12-18T12:36:20.963Z,5.28
2018-12-18T12:37:24.032Z,5.31
2018-12-18T12:38:27.174Z,5.18
2018-12-18T12:39:31.006Z,5.19
2018-12-18T12:40:33.755Z,5.19
2018-12-18T12:41:37.832Z,5.19
2018-12-18T12:42:41.310Z,5.15
2018-12-18T12:43:44.110Z,5.05
2018-12-18T12:44:47.596Z,5.09
2018-12-18T12:45:50.856Z,5.07
2018-12-18T12:46:53.950Z,5.12
2018-12-18T12:48:01.502Z,5.15
2018-12-18T12:49:10.384Z,5.14
2018-12-18T12:50:14.099Z,5.12
2018-12-18T12:51:17.803Z,5.05
2018-12-18T12:52:22.621Z,5.04
2018-12-18T12:53:26.494Z,5.03
2018-12-18T12:54:29.305Z,5.08
2018-12-18T12:55:32.336Z,5.15
2018-12-18T12:56:35.441Z,5.26
2018-12-18T12:57:39.422Z,5.29
2018-12-18T12:58:42.910Z,5.19
2018-12-18T12:59:46.783Z,5.20
2018-12-18T13:00:50.225Z,5.22
2018-12-18T13:01:54.352Z,5.08
2018-12-18T13:03:00.471Z,5.04
2018-12-18T13:04:03.487Z,5.10
2018-12-18T13:05:07.610Z,5.14
2018-12-18T13:06:11.320Z,5.22
2018-12-18T13:07:14.108Z,5.16
2018-12-18T13:08:17.712Z,5.13
2018-12-18T13:09:20.636Z,5.13
2018-12-18T13:10:28.465Z,5.08
2018-12-18T13:11:31.644Z,5.11
2018-12-18T13:12:34.446Z,5.20
2018-12-18T13:13:37.480Z,5.14
2018-12-18T13:14:41.540Z,5.05
2018-12-18T13:15:44.373Z,5.06
2018-12-18T13:16:48.122Z,5.14
2018-12-18T13:17:50.890Z,5.09
2018-12-18T13:18:54.726Z,5.07
2018-12-18T13:19:58.424Z,4.97
2018-12-18T13:21:02.554Z,5.01
2018-12-18T13:22:05.516Z,5.06
2018-12-18T13:23:08.649Z,5.05
2018-12-18T13:24:11.558Z,5.04
2018-12-18T13:25:14.391Z,5.07
2018-12-18T13:26:17.365Z,5.11
2018-12-18T13:27:20.949Z,5.12
2018-12-18T13:28:24.260Z,5.12
2018-12-18T13:29:27.817Z,5.11
2018-12-18T13:30:31.357Z,5.13
2018-12-18T13:31:38.677Z,5.10
2018-12-18T13:32:42.408Z,5.06
2018-12-18T13:33:46.362Z,5.06
2018-12-18T13:34:49.936Z,5.06
2018-12-18T13:35:53.580Z,5.09
2018-12-18T13:36:56.578Z,5.11
2018-12-18T13:38:03.318Z,5.04
2018-12-18T13:39:07.425Z,5.04
2018-12-18T13:40:11.489Z,5.03
2018-12-18T13:41:14.670Z,5.03
2018-12-18T13:42:21.043Z,5.07
2018-12-18T13:43:25.481Z,5.09
2018-12-18T13:44:30.263Z,5.06
2018-12-18T13:45:39.504Z,5.03
2018-12-18T13:46:43.913Z,4.99
2018-12-18T13:47:46.785Z,4.96
2018-12-18T13:48:52.479Z,4.98
2018-12-18T13:49:59.554Z,4.94
2018-12-18T13:51:03.151Z,4.96
2018-12-18T13:52:08.124Z,4.98
2018-12-18T13:53:11.868Z,4.98
2018-12-18T13:54:15.223Z,4.92
2018-12-18T13:55:19.713Z,4.95
2018-12-18T13:56:22.476Z,4.95
2018-12-18T13:57:25.539Z,4.99
2018-12-18T13:58:28.657Z,5.03
2018-12-18T13:59:33.567Z,5.01
2018-12-18T14:00:36.536Z,5.00
2018-12-18T14:01:39.461Z,5.04
2018-12-18T14:02:48.526Z,5.08
2018-12-18T14:03:51.422Z,5.08
2018-12-18T14:04:54.937Z,5.18
2018-12-18T14:05:59.428Z,5.12
2018-12-18T14:07:04.312Z,5.16
2018-12-18T14:08:10.134Z,5.19
2018-12-18T14:09:13.238Z,5.20
2018-12-18T14:10:17.039Z,5.14
2018-12-18T14:11:20.837Z,5.15
2018-12-18T14:12:23.618Z,5.11
2018-12-18T14:13:27.138Z,5.11
2018-12-18T14:14:30.421Z,5.09
2018-12-18T14:15:33.599Z,5.09
2018-12-18T14:16:36.369Z,5.20
2018-12-18T14:17:41.159Z,5.16
2018-12-18T14:18:44.545Z,5.11
2018-12-18T14:19:48.432Z,5.09
2018-12-18T14:20:51.281Z,5.08
2018-12-18T14:21:54.019Z,5.06
2018-12-18T14:22:56.789Z,5.08
2018-12-18T14:24:02.055Z,5.05
2018-12-18T14:25:06.256Z,5.02
2018-12-18T14:26:10.455Z,5.01
2018-12-18T14:27:13.312Z,4.99
2018-12-18T14:28:16.056Z,5.01
2018-12-18T14:29:19.453Z,5.07
2018-12-18T14:30:23.680Z,5.00
2018-12-18T14:31:27.765Z,4.97
2018-12-18T14:32:31.392Z,4.99
2018-12-18T14:33:34.410Z,4.99
2018-12-18T14:34:37.717Z,4.95
2018-12-18T14:35:42.444Z,4.93